Terminal Aerodrome Forecast
Issued by NWS Omaha/Valley, NE

Home | Current Version | Previous Version | Text Only | Print | Product List | Glossary On
Versions: 1 2 3 4 5 6 7 8 9 10 11 12 13 14 15 16
000
FTUS43 KOAX 230810 AAA
TAFOFK
TAF AMD
KOFK 230810Z 2308/2406 12014G22KT P6SM VCSH BKN080 WS015/17050KT
      TEMPO 2308/2312 5SM TSRA BKN030CB
     FM231400 17025G32KT P6SM SCT040 BKN250
     FM240000 01020G27KT P6SM OVC100
      TEMPO 2400/2404 4SM TSRA BKN030CB
     FM240400 35015KT 4SM TSRA OVC030CB=

USA.gov is the U.S. government's official web portal to all federal, state and local government web resources and services.